createdAt,value
2023-04-29T00:01:17.764Z,6.00
2023-04-29T00:03:44.773Z,5.66
2023-04-29T00:06:11.999Z,5.48
2023-04-29T00:08:38.675Z,5.96
2023-04-29T00:11:05.353Z,6.62
2023-04-29T00:13:32.012Z,7.14
2023-04-29T00:15:58.623Z,7.41
2023-04-29T00:18:25.210Z,7.00
2023-04-29T00:20:51.776Z,6.44
2023-04-29T00:23:18.368Z,6.03
2023-04-29T00:25:44.930Z,5.72
2023-04-29T00:28:11.480Z,5.47
2023-04-29T00:30:38.149Z,5.41
2023-04-29T00:33:04.928Z,6.00
2023-04-29T00:35:31.575Z,6.68
2023-04-29T00:37:58.389Z,7.28
2023-04-29T00:40:25.034Z,7.47
2023-04-29T00:42:51.730Z,6.96
2023-04-29T00:45:18.510Z,6.48
2023-04-29T00:47:45.183Z,6.15
2023-04-29T00:50:12.596Z,5.91
2023-04-29T00:52:40.249Z,5.89
2023-04-29T00:55:09.039Z,6.58
2023-04-29T00:57:35.849Z,7.27
2023-04-29T01:00:03.317Z,7.11
2023-04-29T01:02:30.198Z,6.66
2023-04-29T01:04:57.139Z,6.31
2023-04-29T01:07:45.933Z,6.05
2023-04-29T01:10:54.364Z,5.85
2023-04-29T01:13:30.812Z,6.01
2023-04-29T01:16:05.583Z,6.92
2023-04-29T01:18:36.989Z,7.46
2023-04-29T01:21:03.751Z,7.06
2023-04-29T01:23:30.665Z,6.63
2023-04-29T01:25:58.684Z,6.33
2023-04-29T01:29:02.758Z,6.10
2023-04-29T01:31:45.303Z,5.97
2023-04-29T01:34:22.412Z,6.45
2023-04-29T01:36:49.365Z,7.32
2023-04-29T01:39:16.046Z,7.83
2023-04-29T01:41:52.244Z,7.60
2023-04-29T01:44:27.327Z,7.08
2023-04-29T01:46:54.366Z,6.71
2023-04-29T01:49:27.939Z,6.45
2023-04-29T01:51:55.805Z,6.24
2023-04-29T01:54:22.671Z,6.10
2023-04-29T01:56:49.663Z,6.14
2023-04-29T01:59:27.623Z,6.85
2023-04-29T02:02:25.572Z,7.74
2023-04-29T02:04:59.554Z,7.75
2023-04-29T02:07:26.403Z,7.29
2023-04-29T02:09:53.603Z,6.90
2023-04-29T02:12:22.060Z,6.60
2023-04-29T02:14:53.353Z,6.38
2023-04-29T02:17:26.785Z,6.20
2023-04-29T02:19:55.601Z,6.22
2023-04-29T02:22:27.584Z,6.90
2023-04-29T02:24:58.354Z,7.65
2023-04-29T02:27:24.995Z,8.04
2023-04-29T02:29:51.863Z,7.70
2023-04-29T02:32:23.990Z,7.20
2023-04-29T02:34:53.323Z,6.81
2023-04-29T02:37:26.779Z,6.52
2023-04-29T02:39:53.658Z,6.31
2023-04-29T02:42:34.226Z,6.30
2023-04-29T02:45:05.174Z,7.09
2023-04-29T02:47:33.890Z,7.69
2023-04-29T02:50:00.506Z,7.41
2023-04-29T02:52:27.324Z,7.00
2023-04-29T02:54:53.917Z,6.69
2023-04-29T02:57:23.573Z,6.44
2023-04-29T02:59:50.529Z,6.28
2023-04-29T03:02:17.353Z,6.62
2023-04-29T03:04:47.070Z,7.41
2023-04-29T03:07:13.630Z,7.92
2023-04-29T03:09:40.209Z,7.74
2023-04-29T03:12:07.449Z,7.32
2023-04-29T03:14:33.986Z,6.95
2023-04-29T03:17:00.715Z,6.68
2023-04-29T03:19:27.380Z,6.48
2023-04-29T03:21:54.814Z,6.35
2023-04-29T03:24:21.430Z,6.72
2023-04-29T03:26:48.078Z,7.52
2023-04-29T03:29:14.589Z,8.04
2023-04-29T03:31:41.697Z,7.85
2023-04-29T03:34:08.560Z,7.42
2023-04-29T03:36:37.365Z,7.10
2023-04-29T03:39:08.993Z,6.88
2023-04-29T03:41:36.920Z,6.72
2023-04-29T03:44:03.664Z,6.60
2023-04-29T03:46:30.362Z,6.51
2023-04-29T03:49:05.569Z,6.65
2023-04-29T03:51:32.329Z,7.50
2023-04-29T03:54:13.992Z,8.12
2023-04-29T03:56:43.391Z,7.95
2023-04-29T03:59:10.069Z,7.61
2023-04-29T04:01:47.821Z,7.32
2023-04-29T04:04:16.737Z,7.13
2023-04-29T04:06:52.009Z,6.99
2023-04-29T04:09:20.356Z,6.89
2023-04-29T04:11:48.033Z,6.83
2023-04-29T04:14:16.242Z,6.81
2023-04-29T04:16:42.920Z,6.79
2023-04-29T04:19:17.265Z,6.81
2023-04-29T04:21:44.910Z,6.85
2023-04-29T04:24:11.528Z,6.88
2023-04-29T04:26:38.118Z,6.91
2023-04-29T04:29:31.031Z,6.97
2023-04-29T04:32:07.953Z,7.03
2023-04-29T04:34:35.669Z,7.09
2023-04-29T04:37:04.122Z,7.16
2023-04-29T04:39:34.757Z,7.23
2023-04-29T04:42:03.652Z,7.30
2023-04-29T04:44:32.615Z,7.38
2023-04-29T04:47:13.792Z,7.46
2023-04-29T04:49:50.662Z,7.54
2023-04-29T04:52:23.735Z,7.63
2023-04-29T04:54:59.728Z,7.71
2023-04-29T04:57:30.056Z,7.81
2023-04-29T05:00:08.857Z,7.89
2023-04-29T05:02:36.453Z,7.98
2023-04-29T05:05:05.610Z,8.06
2023-04-29T05:07:38.149Z,8.13
2023-04-29T05:10:08.860Z,8.21
2023-04-29T05:12:43.613Z,8.29
2023-04-29T05:15:10.765Z,8.37
2023-04-29T05:17:38.108Z,8.44
2023-04-29T05:20:05.642Z,8.53
2023-04-29T05:22:32.812Z,8.62
2023-04-29T05:25:03.035Z,8.69
2023-04-29T05:27:30.317Z,8.77
2023-04-29T05:29:57.264Z,8.86
2023-04-29T05:32:24.095Z,8.95
2023-04-29T05:34:52.020Z,9.08
2023-04-29T05:37:18.657Z,9.21
2023-04-29T05:39:59.128Z,9.38
2023-04-29T05:42:26.274Z,9.57
2023-04-29T05:44:53.314Z,9.69
2023-04-29T05:47:19.995Z,9.85
2023-04-29T05:49:46.768Z,9.99
2023-04-29T05:52:13.355Z,10.11
2023-04-29T05:54:44.300Z,10.31
2023-04-29T05:57:11.225Z,10.48
2023-04-29T05:59:39.572Z,10.62
2023-04-29T06:02:06.944Z,10.75
2023-04-29T06:04:35.203Z,10.88
2023-04-29T06:07:20.590Z,11.00
2023-04-29T06:09:56.173Z,11.03
2023-04-29T06:12:25.534Z,11.01
2023-04-29T06:14:52.339Z,11.00
2023-04-29T06:17:20.076Z,11.01
2023-04-29T06:19:46.695Z,11.07
2023-04-29T06:22:13.397Z,11.15
2023-04-29T06:24:44.648Z,11.22
2023-04-29T06:27:14.389Z,11.31
2023-04-29T06:29:42.189Z,11.42
2023-04-29T06:32:09.055Z,11.59
2023-04-29T06:34:37.156Z,11.88
2023-04-29T06:37:27.690Z,12.70
2023-04-29T06:40:11.834Z,13.87
2023-04-29T06:42:58.820Z,15.08
2023-04-29T06:45:57.587Z,16.45
2023-04-29T06:48:39.278Z,17.40
2023-04-29T06:51:06.063Z,17.84
2023-04-29T06:53:35.991Z,17.84
2023-04-29T06:56:02.709Z,17.76
2023-04-29T06:58:29.308Z,17.66
2023-04-29T07:00:56.462Z,17.62
2023-04-29T07:03:23.137Z,17.78
2023-04-29T07:05:50.618Z,18.54
2023-04-29T07:08:17.200Z,19.70
2023-04-29T07:10:43.714Z,20.88
2023-04-29T07:13:10.439Z,21.82
2023-04-29T07:15:38.002Z,22.65
2023-04-29T07:18:06.048Z,23.48
2023-04-29T07:20:32.744Z,24.32
2023-04-29T07:22:59.482Z,25.00
2023-04-29T07:25:29.638Z,25.20
2023-04-29T07:27:56.860Z,25.54
2023-04-29T07:30:25.565Z,25.88
2023-04-29T07:32:52.349Z,26.17
2023-04-29T07:35:19.339Z,26.13
2023-04-29T07:37:46.160Z,25.68
2023-04-29T07:40:13.167Z,25.22
2023-04-29T07:42:39.733Z,24.84
2023-04-29T07:45:07.637Z,24.93
2023-04-29T07:47:34.342Z,25.39
2023-04-29T07:50:01.571Z,25.60
2023-04-29T07:52:28.427Z,25.59
2023-04-29T07:54:57.793Z,24.98
2023-04-29T07:57:24.498Z,25.29
2023-04-29T07:59:54.567Z,25.89
2023-04-29T08:02:21.701Z,25.98
2023-04-29T08:04:51.338Z,25.16
2023-04-29T08:07:18.837Z,24.53
2023-04-29T08:09:45.701Z,24.29
2023-04-29T08:12:12.383Z,23.88
2023-04-29T08:14:40.594Z,24.19
2023-04-29T08:17:08.337Z,24.51
2023-04-29T08:19:35.107Z,24.84
2023-04-29T08:22:01.987Z,24.99
2023-04-29T08:24:29.643Z,24.54
2023-04-29T08:26:56.393Z,24.69
2023-04-29T08:29:23.092Z,24.90
2023-04-29T08:31:50.324Z,25.17
2023-04-29T08:34:17.451Z,25.89
2023-04-29T08:36:44.115Z,25.91
2023-04-29T08:39:10.762Z,25.73
2023-04-29T08:41:37.722Z,25.64
2023-04-29T08:44:04.458Z,25.31
2023-04-29T08:46:31.885Z,24.69
2023-04-29T08:48:59.552Z,24.40
2023-04-29T08:51:26.668Z,24.79
2023-04-29T08:53:53.374Z,25.18
2023-04-29T08:56:21.796Z,25.24
2023-04-29T08:58:54.818Z,25.34
2023-04-29T09:01:23.250Z,25.90
2023-04-29T09:04:09.799Z,25.82
2023-04-29T09:06:36.526Z,25.18
2023-04-29T09:09:03.886Z,25.02
2023-04-29T09:11:34.514Z,25.13
2023-04-29T09:14:02.514Z,25.01
2023-04-29T09:16:29.629Z,25.06
2023-04-29T09:18:56.975Z,25.24
2023-04-29T09:21:27.098Z,25.32
2023-04-29T09:23:56.252Z,25.24
2023-04-29T09:26:24.402Z,25.19
2023-04-29T09:29:09.362Z,25.36
2023-04-29T09:31:38.084Z,25.91
2023-04-29T09:34:04.909Z,26.14
2023-04-29T09:36:47.598Z,25.96
2023-04-29T09:39:22.475Z,25.72
2023-04-29T09:41:52.273Z,25.68
2023-04-29T09:44:23.855Z,25.69
2023-04-29T09:46:59.956Z,25.72
2023-04-29T09:49:29.011Z,25.84
2023-04-29T09:51:58.394Z,26.69
2023-04-29T09:54:28.540Z,27.66
2023-04-29T09:56:57.608Z,28.19
2023-04-29T09:59:24.901Z,28.50
2023-04-29T10:01:54.432Z,27.60
2023-04-29T10:04:23.448Z,27.19
2023-04-29T10:06:53.910Z,27.06
2023-04-29T10:09:22.159Z,27.65
2023-04-29T10:11:53.774Z,27.74
2023-04-29T10:14:25.675Z,27.00
2023-04-29T10:17:00.019Z,26.78
2023-04-29T10:19:33.660Z,26.91
2023-04-29T10:22:08.890Z,26.96
2023-04-29T10:24:39.535Z,26.63
2023-04-29T10:27:12.736Z,26.59
2023-04-29T10:29:40.040Z,26.73
2023-04-29T10:32:13.263Z,26.93
2023-04-29T10:34:41.758Z,27.01
2023-04-29T10:37:10.044Z,27.12
2023-04-29T10:39:46.716Z,27.54
2023-04-29T10:42:36.472Z,27.67
2023-04-29T10:45:29.974Z,27.27
2023-04-29T10:48:06.195Z,26.75
2023-04-29T10:50:34.164Z,26.39
2023-04-29T10:53:05.111Z,26.01
2023-04-29T10:55:36.102Z,26.21
2023-04-29T10:58:05.127Z,27.03
2023-04-29T11:00:34.038Z,27.71
2023-04-29T11:03:02.450Z,27.86
2023-04-29T11:05:37.221Z,27.68
2023-04-29T11:08:16.414Z,27.95
2023-04-29T11:10:44.038Z,28.13
2023-04-29T11:13:30.774Z,27.98
2023-04-29T11:16:05.495Z,28.30
2023-04-29T11:18:35.456Z,28.47
2023-04-29T11:21:09.061Z,28.62
2023-04-29T11:23:45.230Z,28.63
2023-04-29T11:26:12.518Z,28.02
2023-04-29T11:28:43.125Z,27.09
2023-04-29T11:31:10.461Z,26.71
2023-04-29T11:33:37.493Z,26.55
2023-04-29T11:36:04.751Z,26.37
2023-04-29T11:38:31.632Z,25.87
2023-04-29T11:40:59.767Z,25.58
2023-04-29T11:43:26.472Z,25.48
2023-04-29T11:45:54.556Z,25.26
2023-04-29T11:48:22.678Z,25.42
2023-04-29T11:50:51.717Z,25.37
2023-04-29T11:53:25.461Z,24.97
2023-04-29T11:55:56.473Z,24.78
2023-04-29T11:58:24.669Z,25.18
2023-04-29T12:00:54.256Z,25.50
2023-04-29T12:03:23.242Z,25.48
2023-04-29T12:05:54.739Z,25.79
2023-04-29T12:08:25.458Z,26.26
2023-04-29T12:10:57.472Z,26.42
2023-04-29T12:13:31.441Z,26.53
2023-04-29T12:16:02.268Z,26.61
2023-04-29T12:18:31.422Z,26.25
2023-04-29T12:21:01.417Z,25.58
2023-04-29T12:23:32.463Z,25.54
2023-04-29T12:26:03.468Z,25.64
2023-04-29T12:28:33.487Z,25.71
2023-04-29T12:31:02.862Z,25.58
2023-04-29T12:33:35.072Z,25.35
2023-04-29T12:36:04.495Z,24.46
2023-04-29T12:38:35.057Z,24.14
2023-04-29T12:41:04.434Z,24.28
2023-04-29T12:43:34.439Z,24.60
2023-04-29T12:46:09.605Z,24.57
2023-04-29T12:48:41.557Z,24.33
2023-04-29T12:51:12.514Z,24.49
2023-04-29T12:53:42.469Z,24.34
2023-04-29T12:56:13.482Z,23.76
2023-04-29T12:58:43.217Z,23.31
2023-04-29T13:01:12.467Z,22.92
2023-04-29T13:10:46.361Z,23.93
2023-04-29T13:13:13.226Z,24.41
2023-04-29T13:15:39.903Z,24.75
2023-04-29T13:18:06.749Z,24.58
2023-04-29T13:20:40.437Z,23.78
2023-04-29T13:23:08.919Z,22.89
2023-04-29T13:25:36.625Z,22.23
2023-04-29T13:28:05.509Z,22.14
2023-04-29T13:30:33.100Z,22.27
2023-04-29T13:33:08.449Z,22.35
2023-04-29T13:35:40.065Z,22.52
2023-04-29T13:38:07.693Z,22.50
2023-04-29T13:40:38.838Z,22.28
2023-04-29T13:43:09.850Z,22.32
2023-04-29T13:45:39.885Z,22.54
2023-04-29T13:48:28.356Z,22.62
2023-04-29T13:51:37.321Z,22.48
2023-04-29T13:59:30.669Z,21.96
2023-04-29T14:04:00.583Z,21.47
2023-04-29T14:06:28.477Z,21.25
2023-04-29T14:08:55.333Z,21.07
2023-04-29T14:11:21.955Z,20.84
2023-04-29T14:13:48.550Z,20.57
2023-04-29T14:16:15.384Z,20.28
2023-04-29T14:18:42.159Z,20.03
2023-04-29T14:21:08.785Z,19.79
2023-04-29T14:23:35.876Z,19.52
2023-04-29T14:26:22.415Z,19.33
2023-04-29T14:28:49.797Z,19.11
2023-04-29T14:31:18.037Z,18.88
2023-04-29T14:33:44.624Z,18.68
2023-04-29T14:36:11.217Z,18.59
2023-04-29T14:38:37.837Z,18.52
2023-04-29T14:41:04.467Z,18.45
2023-04-29T14:43:31.148Z,18.39
2023-04-29T14:45:58.081Z,18.36
2023-04-29T14:48:25.118Z,18.36
2023-04-29T14:50:51.934Z,18.34
2023-04-29T14:53:18.922Z,18.28
2023-04-29T14:55:45.559Z,18.23
2023-04-29T14:58:12.097Z,18.22
2023-04-29T15:00:38.630Z,18.18
2023-04-29T15:03:05.373Z,18.16
2023-04-29T15:05:32.095Z,18.13
2023-04-29T15:08:00.268Z,18.12
2023-04-29T15:10:27.753Z,18.15
2023-04-29T15:12:54.904Z,18.18
2023-04-29T15:15:22.837Z,18.15
2023-04-29T15:17:49.787Z,18.12
2023-04-29T15:20:16.693Z,18.05
2023-04-29T15:22:43.473Z,17.97
2023-04-29T15:25:10.813Z,17.87
2023-04-29T15:27:37.941Z,17.81
2023-04-29T15:30:06.002Z,17.78
2023-04-29T15:32:32.848Z,17.76
2023-04-29T15:35:01.053Z,17.73
2023-04-29T15:37:28.966Z,17.72
2023-04-29T15:39:56.771Z,17.72
2023-04-29T15:42:23.371Z,17.72
2023-04-29T15:44:50.266Z,17.71
2023-04-29T15:47:17.161Z,17.69
2023-04-29T15:49:43.952Z,17.67
2023-04-29T15:52:10.609Z,17.63
2023-04-29T15:54:37.400Z,17.61
2023-04-29T15:57:04.246Z,17.57
2023-04-29T15:59:31.622Z,17.55
2023-04-29T16:01:58.582Z,17.51
2023-04-29T16:04:27.448Z,17.49
2023-04-29T16:06:54.063Z,17.47
2023-04-29T16:09:21.650Z,17.42
2023-04-29T16:11:48.581Z,17.39
2023-04-29T16:14:15.332Z,17.37
2023-04-29T16:16:42.885Z,17.33
2023-04-29T16:19:09.540Z,17.27
2023-04-29T16:21:36.146Z,17.20
2023-04-29T16:24:02.885Z,17.11
2023-04-29T16:26:29.789Z,17.03
2023-04-29T16:28:56.674Z,16.97
2023-04-29T16:31:23.665Z,16.90
2023-04-29T16:33:50.593Z,16.84
2023-04-29T16:36:17.356Z,16.79
2023-04-29T16:38:44.010Z,16.76
2023-04-29T16:41:10.585Z,16.76
2023-04-29T16:43:37.295Z,16.76
2023-04-29T16:46:03.968Z,16.75
2023-04-29T16:48:30.536Z,16.74
2023-04-29T16:50:58.778Z,16.74
2023-04-29T16:53:25.405Z,16.75
2023-04-29T16:55:52.535Z,16.76
2023-04-29T16:58:19.533Z,16.76
2023-04-29T17:00:46.766Z,16.76
2023-04-29T17:03:13.944Z,16.73
2023-04-29T17:05:40.884Z,16.69
2023-04-29T17:08:07.939Z,16.63
2023-04-29T17:10:34.996Z,16.55
2023-04-29T17:13:01.641Z,16.46
2023-04-29T17:15:29.058Z,16.34
2023-04-29T17:17:55.878Z,16.21
2023-04-29T17:20:22.898Z,16.08
2023-04-29T17:22:49.887Z,15.95
2023-04-29T17:25:16.577Z,15.82
2023-04-29T17:27:45.232Z,15.68
2023-04-29T17:30:12.713Z,15.54
2023-04-29T17:32:39.591Z,15.43
2023-04-29T17:35:08.662Z,15.32
2023-04-29T17:37:35.476Z,15.21
2023-04-29T17:40:02.830Z,15.08
2023-04-29T17:42:29.645Z,14.96
2023-04-29T17:44:56.326Z,14.87
2023-04-29T17:47:23.412Z,14.77
2023-04-29T17:49:52.151Z,14.68
2023-04-29T17:52:21.448Z,14.59
2023-04-29T17:54:49.008Z,14.50
2023-04-29T17:57:15.749Z,14.40
2023-04-29T17:59:42.511Z,14.29
2023-04-29T18:02:09.140Z,14.19
2023-04-29T18:04:37.437Z,14.10
2023-04-29T18:07:04.156Z,14.01
2023-04-29T18:09:30.822Z,13.92
2023-04-29T18:11:57.567Z,13.83
2023-04-29T18:14:24.694Z,13.76
2023-04-29T18:16:52.652Z,13.67
2023-04-29T18:19:19.319Z,13.60
2023-04-29T18:21:46.123Z,13.53
2023-04-29T18:24:12.880Z,13.47
2023-04-29T18:26:39.805Z,13.44
2023-04-29T18:29:06.712Z,13.41
2023-04-29T18:31:33.464Z,13.38
2023-04-29T18:34:00.265Z,13.36
2023-04-29T18:36:28.162Z,13.32
2023-04-29T18:38:55.020Z,13.30
2023-04-29T18:41:21.632Z,13.28
2023-04-29T18:43:51.082Z,13.26
2023-04-29T18:46:17.819Z,13.24
2023-04-29T18:48:44.425Z,13.21
2023-04-29T18:51:11.806Z,13.17
2023-04-29T18:53:38.907Z,13.14
2023-04-29T18:56:06.590Z,13.13
2023-04-29T18:58:33.426Z,13.12
2023-04-29T19:01:02.515Z,13.12
2023-04-29T19:03:29.358Z,13.11
2023-04-29T19:05:56.007Z,13.11
2023-04-29T19:08:22.722Z,13.11
2023-04-29T19:10:49.362Z,13.11
2023-04-29T19:13:16.319Z,13.09
2023-04-29T19:15:43.476Z,13.08
2023-04-29T19:18:10.452Z,13.07
2023-04-29T19:20:37.083Z,13.05
2023-04-29T19:23:03.872Z,13.01
2023-04-29T19:25:31.901Z,12.99
2023-04-29T19:27:58.902Z,12.96
2023-04-29T19:30:27.011Z,12.92
2023-04-29T19:32:53.907Z,12.85
2023-04-29T19:35:20.984Z,12.75
2023-04-29T19:37:47.655Z,12.64
2023-04-29T19:40:14.294Z,12.54
2023-04-29T19:42:41.093Z,12.42
2023-04-29T19:45:09.590Z,12.34
2023-04-29T19:47:36.766Z,12.24
2023-04-29T19:50:05.364Z,12.12
2023-04-29T19:52:32.048Z,11.99
2023-04-29T19:54:58.745Z,11.89
2023-04-29T19:57:26.185Z,11.82
2023-04-29T19:59:53.237Z,11.75
2023-04-29T20:02:23.173Z,11.70
2023-04-29T20:04:49.998Z,11.64
2023-04-29T20:07:16.652Z,11.57
2023-04-29T20:09:45.614Z,11.52
2023-04-29T20:12:12.444Z,11.47
2023-04-29T20:14:39.147Z,11.41
2023-04-29T20:17:06.220Z,11.35
2023-04-29T20:19:33.093Z,11.28
2023-04-29T20:21:59.657Z,11.21
2023-04-29T20:24:26.861Z,11.14
2023-04-29T20:26:53.388Z,11.07
2023-04-29T20:29:21.408Z,11.03
2023-04-29T20:31:48.177Z,10.99
2023-04-29T20:34:15.044Z,11.08
2023-04-29T20:36:41.622Z,11.75
2023-04-29T20:39:09.405Z,12.40
2023-04-29T20:41:36.093Z,12.78
2023-04-29T20:44:03.310Z,12.48
2023-04-29T20:46:31.830Z,12.05
2023-04-29T20:48:58.512Z,11.70
2023-04-29T20:51:25.135Z,11.45
2023-04-29T20:53:51.756Z,11.24
2023-04-29T20:56:18.349Z,11.07
2023-04-29T20:58:44.891Z,10.91
2023-04-29T21:01:11.474Z,10.78
2023-04-29T21:03:38.157Z,10.80
2023-04-29T21:06:05.031Z,11.42
2023-04-29T21:08:31.692Z,12.10
2023-04-29T21:10:58.412Z,12.50
2023-04-29T21:13:25.037Z,12.23
2023-04-29T21:15:51.646Z,11.81
2023-04-29T21:18:18.915Z,11.48
2023-04-29T21:20:46.378Z,11.24
2023-04-29T21:23:12.993Z,11.06
2023-04-29T21:25:39.671Z,10.91
2023-04-29T21:28:06.277Z,10.79
2023-04-29T21:30:32.836Z,10.80
2023-04-29T21:32:59.605Z,11.37
2023-04-29T21:35:26.700Z,12.03
2023-04-29T21:37:53.287Z,12.40
2023-04-29T21:40:20.017Z,12.08
2023-04-29T21:42:47.728Z,11.64
2023-04-29T21:45:16.269Z,11.27
2023-04-29T21:47:43.397Z,11.00
2023-04-29T21:50:11.610Z,10.78
2023-04-29T21:52:38.364Z,10.74
2023-04-29T21:55:06.339Z,11.30
2023-04-29T21:57:43.436Z,11.91
2023-04-29T22:00:28.316Z,12.38
2023-04-29T22:02:55.053Z,12.57
2023-04-29T22:05:21.660Z,12.12
2023-04-29T22:07:48.247Z,11.62
2023-04-29T22:10:15.129Z,11.24
2023-04-29T22:12:41.736Z,10.94
2023-04-29T22:15:16.945Z,10.71
2023-04-29T22:17:54.325Z,10.69
2023-04-29T22:20:21.250Z,11.28
2023-04-29T22:22:47.910Z,11.88
2023-04-29T22:25:14.546Z,12.33
2023-04-29T22:27:41.372Z,12.52
2023-04-29T22:30:08.959Z,12.10
2023-04-29T22:32:35.976Z,11.58
2023-04-29T22:35:02.685Z,11.18
2023-04-29T22:37:29.261Z,10.89
2023-04-29T22:39:56.999Z,10.66
2023-04-29T22:42:23.765Z,10.61
2023-04-29T22:44:50.617Z,11.17
2023-04-29T22:47:17.308Z,11.74
2023-04-29T22:49:43.890Z,12.18
2023-04-29T22:52:10.479Z,12.50
2023-04-29T22:54:37.036Z,12.59
2023-04-29T22:57:04.148Z,12.08
2023-04-29T22:59:30.953Z,11.50
2023-04-29T23:01:57.774Z,11.04
2023-04-29T23:04:24.866Z,10.68
2023-04-29T23:06:51.734Z,10.49
2023-04-29T23:09:18.467Z,10.93
2023-04-29T23:11:45.124Z,11.46
2023-04-29T23:14:11.676Z,11.87
2023-04-29T23:16:38.147Z,12.03
2023-04-29T23:19:04.805Z,11.56
2023-04-29T23:21:32.569Z,10.99
2023-04-29T23:23:59.215Z,10.54
2023-04-29T23:26:25.743Z,10.20
2023-04-29T23:28:52.333Z,10.07
2023-04-29T23:31:18.998Z,10.57
2023-04-29T23:33:45.620Z,11.12
2023-04-29T23:36:12.177Z,11.53
2023-04-29T23:38:38.729Z,11.85
2023-04-29T23:41:05.335Z,12.10
2023-04-29T23:43:32.157Z,12.21
2023-04-29T23:45:58.917Z,11.75
2023-04-29T23:48:25.536Z,11.28
2023-04-29T23:50:52.047Z,10.94
2023-04-29T23:53:18.709Z,10.68
2023-04-29T23:55:45.458Z,10.51
2023-04-29T23:58:12.055Z,10.36
